Pattison, Mississippi
Current Conditions -  °F | °C
As of 4:55 AM on Thursday 23 Oct 2014 (Local Time) from KVKS Reporting Station
Haze Haze  
Wind Chill: 45°   Ceiling: 3000
Heat Index: 45°   Visibility: 5mi
Dew Point: 45°   Wind: 0mph
Humidity: 100%   Direction: NA
Pressure: 30.13"   Gusts: NA
Location:  31.89°N, 90.89°W
Report Text: KVKS 230955Z AUTO 00000KT 5SM BR BKN030 07/07 A3013 RMK A01
Loading
Personal Weather Stations






























Interactive Weather Map
Tropical Storm Tracking
New forecast layout! Learn more

10-Day Weather Forecast

Advertisements
Track Severe Weather on mobile